Time;durP1;ratioP1;P1;durP2;ratioP2;P2;SDS_P1;SDS_P2;PMS_P1;PMS_P2;Temp;Humidity;BMP_temperature;BMP_pressure;BME280_temperature;BME280_humidity;BME280_pressure;Samples;Min_cycle;Max_cycle;Signal;HPM_P1;HPM_P2
2023/05/04 00:01:07;;;;;;;12.10;9.83;;;;;;;11.69;100.00;64175.44;5050984;28;20706;-55
2023/05/04 00:03:32;;;;;;;11.27;10.07;;;;;;;11.66;100.00;64174.13;5051031;28;20204;-55
2023/05/04 00:05:58;;;;;;;13.33;10.43;;;;;;;11.54;100.00;64158.97;5050605;28;20205;-54
2023/05/04 00:08:23;;;;;;;11.90;10.20;;;;;;;11.64;100.00;64169.94;5050954;28;20691;-55
2023/05/04 00:10:48;;;;;;;14.93;11.07;;;;;;;11.56;100.00;64160.63;5033373;28;20193;-55
2023/05/04 00:13:14;;;;;;;11.93;9.90;;;;;;;11.56;100.00;64160.63;5050736;28;20258;-56
2023/05/04 00:15:40;;;;;;;12.93;11.03;;;;;;;11.50;100.00;64154.59;5050927;28;20727;-60
2023/05/04 00:18:06;;;;;;;12.60;9.77;;;;;;;11.49;100.00;64153.50;5050858;28;20213;-56
2023/05/04 00:20:31;;;;;;;11.00;9.23;;;;;;;11.43;100.00;64148.91;5050847;28;20239;-55
2023/05/04 00:22:56;;;;;;;13.13;10.73;;;;;;;11.40;100.00;64145.63;5050834;28;20241;-57
2023/05/04 00:25:22;;;;;;;14.30;9.53;;;;;;;11.21;100.00;64122.81;5050673;28;20265;-58
2023/05/04 00:27:47;;;;;;;13.80;10.67;;;;;;;11.30;100.00;64134.66;5050460;28;20208;-55
2023/05/04 00:30:14;;;;;;;14.37;10.13;;;;;;;11.58;100.00;64163.38;5050634;28;20220;-57
2023/05/04 00:32:39;;;;;;;11.93;10.20;;;;;;;11.76;100.00;64185.06;5032557;28;20189;-58
2023/05/04 00:35:05;;;;;;;14.10;9.63;;;;;;;11.61;100.00;64166.09;5050505;28;20212;-58
2023/05/04 00:37:31;;;;;;;29.90;11.33;;;;;;;11.67;100.00;64173.25;5050638;28;20209;-57
2023/05/04 00:39:57;;;;;;;16.47;10.37;;;;;;;11.65;100.00;64171.03;5050545;28;20297;-57
2023/05/04 00:42:22;;;;;;;15.07;10.83;;;;;;;11.59;100.00;64169.50;5049149;28;20656;-58
2023/05/04 00:44:47;;;;;;;14.27;9.97;;;;;;;11.59;100.00;64167.00;5032633;28;20233;-57
2023/05/04 00:47:15;;;;;;;18.10;10.97;;;;;;;11.67;100.00;64175.78;5050482;28;20682;-59
2023/05/04 00:49:40;;;;;;;13.67;10.50;;;;;;;11.36;100.00;64141.22;5050551;28;20275;-54
2023/05/04 00:52:06;;;;;;;14.47;11.03;;;;;;;11.25;100.00;64129.19;5050557;28;20682;-55
2023/05/04 00:54:33;;;;;;;15.93;11.07;;;;;;;11.29;100.00;64131.59;5050571;28;20752;-58
2023/05/04 00:56:58;;;;;;;13.93;12.30;;;;;;;11.16;100.00;64119.88;5050426;28;20205;-59
2023/05/04 00:59:24;;;;;;;19.33;12.83;;;;;;;11.28;100.00;64127.44;5050667;28;20243;-56
2023/05/04 01:01:49;;;;;;;19.57;12.20;;;;;;;11.46;100.00;64152.75;5050412;28;20181;-58
2023/05/04 01:04:15;;;;;;;16.23;12.37;;;;;;;11.44;100.00;64150.56;5050777;28;20237;-54
2023/05/04 01:06:44;;;;;;;19.10;13.07;;;;;;;11.37;100.00;64142.88;5050039;28;20267;-55
2023/05/04 01:09:39;;;;;;;17.73;12.43;;;;;;;11.18;100.00;64116.47;5050271;28;20221;-55
2023/05/04 01:12:16;;;;;;;16.93;13.40;;;;;;;11.06;100.00;64106.41;5033064;28;20209;-56
2023/05/04 01:14:42;;;;;;;17.37;11.83;;;;;;;11.08;100.00;64110.56;5050398;28;20218;-54
2023/05/04 01:17:08;;;;;;;16.90;13.20;;;;;;;11.03;100.00;64102.59;5048797;28;20194;-59
2023/05/04 01:19:34;;;;;;;14.70;11.83;;;;;;;11.00;100.00;64099.84;5076986;22;20740;-58
2023/05/04 01:22:00;;;;;;;17.90;12.97;;;;;;;11.04;100.00;64106.75;5073490;28;20189;-57
2023/05/04 01:24:26;;;;;;;14.30;11.53;;;;;;;11.05;100.00;64107.81;5058354;28;20220;-57
2023/05/04 01:27:07;;;;;;;17.17;11.47;;;;;;;11.26;100.00;64130.84;5053312;28;20210;-58
2023/05/04 01:29:51;;;;;;;17.57;11.93;;;;;;;11.20;100.00;64119.22;5053695;28;20301;-57
2023/05/04 01:32:18;;;;;;;18.17;12.57;;;;;;;11.23;100.00;64124.47;5053572;28;20193;-57
2023/05/04 01:34:44;;;;;;;15.33;11.43;;;;;;;11.31;100.00;64136.28;5051949;28;20210;-58
2023/05/04 01:37:09;;;;;;;17.63;12.10;;;;;;;11.30;100.00;64135.22;5053310;28;20693;-58
2023/05/04 01:39:35;;;;;;;16.80;12.67;;;;;;;11.30;100.00;64132.13;5053608;28;20205;-56
2023/05/04 01:42:01;;;;;;;14.00;12.03;;;;;;;11.30;100.00;64135.22;5035317;28;20200;-56
2023/05/04 01:44:26;;;;;;;17.60;12.63;;;;;;;11.39;100.00;64145.06;5053265;28;20206;-56
2023/05/04 01:46:51;;;;;;;17.70;12.47;;;;;;;11.37;100.00;64142.88;5035309;28;20213;-55
2023/05/04 01:49:17;;;;;;;18.37;12.77;;;;;;;11.35;100.00;64142.66;5053520;28;20217;-55
2023/05/04 01:51:45;;;;;;;16.23;12.00;;;;;;;11.49;100.00;64152.97;5052994;28;20353;-54
2023/05/04 01:54:11;;;;;;;19.83;12.50;;;;;;;11.49;100.00;64158.53;5053304;28;20632;-58
2023/05/04 01:56:36;;;;;;;15.30;11.67;;;;;;;11.33;100.00;64135.44;5052980;28;20648;-58
2023/05/04 01:59:02;;;;;;;16.10;11.90;;;;;;;11.30;100.00;64135.22;5053172;28;20216;-58
2023/05/04 02:01:27;;;;;;;17.23;12.77;;;;;;;11.29;100.00;64134.09;5035053;28;20228;-55
2023/05/04 02:03:52;;;;;;;14.23;10.50;;;;;;;11.38;100.00;64140.91;5052949;28;20271;-55
2023/05/04 02:06:18;;;;;;;15.90;9.77;;;;;;;11.37;100.00;64139.81;5052908;28;20728;-58
2023/05/04 02:08:45;;;;;;;12.93;9.70;;;;;;;11.44;100.00;64147.47;5034947;28;20217;-59
2023/05/04 02:11:11;;;;;;;12.43;9.30;;;;;;;11.42;100.00;64148.34;5052629;28;20181;-58
2023/05/04 02:13:36;;;;;;;14.20;10.70;;;;;;;11.44;100.00;64147.47;5052901;28;20267;-58
2023/05/04 02:16:01;;;;;;;15.97;9.63;;;;;;;11.48;100.00;64152.41;5052662;28;20297;-55
2023/05/04 02:18:27;;;;;;;12.63;9.50;;;;;;;11.40;100.00;64143.09;5052849;28;20256;-55
2023/05/04 02:20:52;;;;;;;15.40;8.93;;;;;;;11.27;100.00;64131.91;5052604;28;20186;-57
2023/05/04 02:23:17;;;;;;;12.23;7.90;;;;;;;11.35;100.00;64140.16;5052629;28;20221;-58
2023/05/04 02:25:43;;;;;;;11.67;8.50;;;;;;;11.37;100.00;64142.34;5052436;28;20667;-58
2023/05/04 02:28:09;;;;;;;9.73;7.17;;;;;;;11.31;100.00;64138.28;5034498;28;20248;-55
2023/05/04 02:30:34;;;;;;;11.43;8.17;;;;;;;11.23;100.00;64124.47;5052278;28;20272;-59
2023/05/04 02:33:00;;;;;;;10.23;8.17;;;;;;;11.32;100.00;64132.34;5052258;28;20213;-57
2023/05/04 02:35:25;;;;;;;10.17;7.67;;;;;;;11.14;100.00;64117.69;5052312;28;20228;-55
2023/05/04 02:37:50;;;;;;;9.03;7.77;;;;;;;10.97;100.00;64099.63;5052346;28;20224;-56
2023/05/04 02:40:16;;;;;;;11.67;7.37;;;;;;;10.88;100.00;64089.22;5052439;28;20181;-59
2023/05/04 02:42:41;;;;;;;11.13;7.27;;;;;;;10.75;100.00;64077.50;5052213;28;20193;-55
2023/05/04 02:45:07;;;;;;;11.80;8.40;;;;;;;10.81;100.00;64079.56;5052319;28;20553;-57
2023/05/04 02:47:33;;;;;;;11.73;8.20;;;;;;;11.00;100.00;64099.84;5052078;28;20695;-58
2023/05/04 02:49:58;;;;;;;9.13;8.07;;;;;;;10.80;100.00;64080.47;5052125;28;20305;-58
2023/05/04 02:52:23;;;;;;;12.10;8.10;;;;;;;10.89;100.00;64090.84;5052140;28;20178;-56
2023/05/04 02:54:49;;;;;;;10.73;7.97;;;;;;;10.93;100.00;64095.22;5051945;28;20248;-57
2023/05/04 02:57:14;;;;;;;11.67;7.80;;;;;;;10.91;100.00;64093.03;5051974;28;20246;-58
2023/05/04 02:59:40;;;;;;;12.37;7.53;;;;;;;10.89;100.00;64087.78;5052233;28;20711;-58
2023/05/04 03:02:05;;;;;;;9.90;7.33;;;;;;;10.85;100.00;64088.44;5052039;28;20193;-58
2023/05/04 03:04:31;;;;;;;8.30;6.53;;;;;;;10.74;100.00;64073.88;5052078;28;20694;-55
2023/05/04 03:06:56;;;;;;;7.87;6.83;;;;;;;10.63;100.00;64059.31;5051919;28;20571;-58
2023/05/04 03:09:21;;;;;;;8.10;6.27;;;;;;;10.55;100.00;64051.13;5051770;28;20217;-58
2023/05/04 03:11:48;;;;;;;9.43;6.13;;;;;;;10.57;100.00;64055.81;5052024;28;20189;-56
2023/05/04 03:14:13;;;;;;;8.40;6.60;;;;;;;10.60;100.00;64056.59;5051912;28;20694;-58
2023/05/04 03:16:38;;;;;;;8.70;6.10;;;;;;;10.51;100.00;64051.78;5051762;28;20243;-54
2023/05/04 03:19:04;;;;;;;6.93;5.60;;;;;;;10.35;100.00;64028.69;5051934;28;20734;-55
2023/05/04 03:21:29;;;;;;;6.23;5.37;;;;;;;10.40;100.00;64036.69;5051834;28;20182;-58
2023/05/04 03:23:54;;;;;;;9.57;6.23;;;;;;;10.42;100.00;64039.41;5051735;28;20355;-55
2023/05/04 03:26:20;;;;;;;6.00;5.40;;;;;;;10.45;100.00;64040.16;5051667;28;20583;-57
2023/05/04 03:28:45;;;;;;;6.10;5.47;;;;;;;10.40;100.00;64037.22;5051545;28;20216;-59
2023/05/04 03:31:11;;;;;;;8.93;6.00;;;;;;;10.27;100.00;64022.44;5033626;28;20251;-55
2023/05/04 03:33:36;;;;;;;8.93;6.50;;;;;;;10.19;100.00;64013.69;5051479;28;20201;-54
2023/05/04 03:36:02;;;;;;;8.20;6.30;;;;;;;10.21;100.00;64015.88;5033545;28;20360;-58
2023/05/04 03:38:28;;;;;;;6.13;5.53;;;;;;;10.31;100.00;64024.84;5051363;28;20282;-62
2023/05/04 03:40:53;;;;;;;9.67;6.50;;;;;;;10.19;100.00;64014.25;5032772;28;20193;-57
2023/05/04 03:43:18;;;;;;;8.00;6.30;;;;;;;10.19;100.00;64013.69;5051052;28;20225;-58
2023/05/04 03:45:45;;;;;;;8.40;6.13;;;;;;;10.27;100.00;64020.47;5051317;28;20189;-58
2023/05/04 03:48:10;;;;;;;7.67;6.77;;;;;;;10.35;100.00;64031.19;5051341;28;20241;-56
2023/05/04 03:50:36;;;;;;;12.83;7.20;;;;;;;10.36;100.00;64029.78;5051453;28;20221;-58
2023/05/04 03:53:01;;;;;;;10.37;6.47;;;;;;;10.24;100.00;64019.16;5051260;28;20212;-58
2023/05/04 03:55:26;;;;;;;8.70;6.17;;;;;;;10.11;100.00;64008.56;5051268;28;20617;-58
2023/05/04 03:57:52;;;;;;;10.10;6.83;;;;;;;10.12;100.00;64006.56;5050978;28;20647;-58
2023/05/04 04:00:17;;;;;;;9.17;7.13;;;;;;;10.38;100.00;64034.47;5051104;28;20220;-58
2023/05/04 04:02:43;;;;;;;10.97;7.10;;;;;;;10.27;100.00;64019.91;5051072;28;20185;-57
2023/05/04 04:05:08;;;;;;;9.17;6.93;;;;;;;10.28;100.00;64024.06;5050976;28;20729;-56
2023/05/04 04:07:34;;;;;;;11.37;7.53;;;;;;;10.33;100.00;64029.00;5050703;28;20576;-56
2023/05/04 04:09:59;;;;;;;9.50;7.13;;;;;;;10.43;100.00;64040.50;5051135;28;20304;-55
2023/05/04 04:12:25;;;;;;;10.47;7.03;;;;;;;10.52;100.00;64044.78;5050864;28;20181;-59
2023/05/04 04:14:53;;;;;;;8.07;5.90;;;;;;;10.51;100.00;64046.19;5050979;28;20221;-58
2023/05/04 04:17:18;;;;;;;8.93;7.00;;;;;;;10.43;100.00;64037.44;5050876;28;20220;-57
2023/05/04 04:19:44;;;;;;;10.50;6.10;;;;;;;10.48;100.00;64045.44;5051047;28;20622;-55
2023/05/04 04:22:09;;;;;;;8.43;6.33;;;;;;;10.36;100.00;64032.28;5050894;28;20669;-57
2023/05/04 04:24:35;;;;;;;9.47;6.43;;;;;;;10.29;100.00;64022.09;5050582;28;20222;-59
2023/05/04 04:27:00;;;;;;;12.40;6.70;;;;;;;10.31;100.00;64024.84;5032825;28;20213;-58
2023/05/04 04:29:26;;;;;;;10.30;6.50;;;;;;;10.31;100.00;64024.31;5051108;28;20244;-56
2023/05/04 04:31:51;;;;;;;9.90;7.23;;;;;;;10.26;100.00;64021.88;5050776;28;20182;-60
2023/05/04 04:34:16;;;;;;;8.00;6.63;;;;;;;10.48;100.00;64043.47;5051003;28;20702;-57
2023/05/04 04:36:42;;;;;;;7.43;6.37;;;;;;;10.55;100.00;64050.56;5050762;28;20186;-56
2023/05/04 04:39:08;;;;;;;10.10;6.70;;;;;;;10.36;100.00;64032.28;5050645;28;20588;-57
2023/05/04 04:41:33;;;;;;;9.57;5.60;;;;;;;10.51;100.00;64049.25;5050637;28;20213;-58
2023/05/04 04:43:59;;;;;;;7.87;5.47;;;;;;;10.32;100.00;64025.97;5050262;28;20217;-59
2023/05/04 04:46:24;;;;;;;10.07;5.50;;;;;;;10.25;100.00;64020.25;5050601;28;20209;-55
2023/05/04 04:48:52;;;;;;;7.30;5.63;;;;;;;10.40;100.00;64039.19;5050617;28;20267;-56
2023/05/04 04:51:17;;;;;;;7.20;4.87;;;;;;;10.64;100.00;64060.97;5050470;28;20240;-56
2023/05/04 04:53:43;;;;;;;6.83;4.67;;;;;;;10.61;100.00;64057.69;5052241;28;20584;-57
2023/05/04 04:56:08;;;;;;;6.63;5.67;;;;;;;10.69;100.00;64068.97;5054040;28;20193;-58
2023/05/04 04:58:34;;;;;;;7.67;5.63;;;;;;;10.77;100.00;64077.16;5054017;28;20220;-58
2023/05/04 05:01:02;;;;;;;7.13;5.60;;;;;;;10.89;100.00;64090.31;5053662;28;20182;-57
2023/05/04 05:03:27;;;;;;;7.57;6.40;;;;;;;10.94;100.00;64093.81;5053593;28;20711;-56
2023/05/04 05:05:54;;;;;;;5.93;5.33;;;;;;;10.85;100.00;64085.91;5053625;28;20185;-59
2023/05/04 05:08:20;;;;;;;10.20;5.83;;;;;;;11.03;100.00;64105.63;5053753;28;20221;-59
2023/05/04 05:10:45;;;;;;;7.23;5.33;;;;;;;11.13;100.00;64116.59;5053694;28;20231;-57
2023/05/04 05:13:10;;;;;;;8.23;5.80;;;;;;;10.92;100.00;64093.59;5053695;28;20219;-57
2023/05/04 05:15:36;;;;;;;8.33;6.20;;;;;;;10.86;100.00;64087.59;5053724;28;20263;-58
2023/05/04 05:18:01;;;;;;;12.03;5.83;;;;;;;10.78;100.00;64081.34;5053516;28;20275;-59
2023/05/04 05:20:27;;;;;;;12.50;6.60;;;;;;;10.53;100.00;64050.88;5053651;28;20596;-56
2023/05/04 05:22:52;;;;;;;6.97;5.47;;;;;;;10.70;100.00;64069.50;5053460;28;20703;-60
2023/05/04 05:25:18;;;;;;;10.73;6.40;;;;;;;10.61;100.00;64057.69;5053751;28;20185;-58
2023/05/04 05:27:44;;;;;;;6.83;5.57;;;;;;;10.57;100.00;64055.28;5053477;28;20213;-57
2023/05/04 05:30:10;;;;;;;8.47;5.73;;;;;;;10.63;100.00;64059.31;5053308;28;20197;-57
2023/05/04 05:32:36;;;;;;;8.63;5.70;;;;;;;10.77;100.00;64074.66;5053317;28;20204;-59
2023/05/04 05:35:05;;;;;;;6.77;5.97;;;;;;;10.84;100.00;64085.38;5053149;28;20216;-57
2023/05/04 05:37:31;;;;;;;8.87;6.03;;;;;;;10.96;100.00;64098.53;5053275;28;20238;-57
2023/05/04 05:39:57;;;;;;;9.03;5.97;;;;;;;10.87;100.00;64088.66;5053054;28;20213;-55
2023/05/04 05:42:22;;;;;;;10.47;6.43;;;;;;;10.84;100.00;64085.38;5053329;28;20188;-57
2023/05/04 05:44:48;;;;;;;8.03;5.60;;;;;;;10.90;100.00;64091.97;5053095;28;20217;-57
2023/05/04 05:47:13;;;;;;;6.73;5.40;;;;;;;10.99;100.00;64101.25;5053291;28;20576;-59
2023/05/04 05:49:40;;;;;;;7.53;5.77;;;;;;;10.95;100.00;64096.88;5018798;28;20263;-60
2023/05/04 05:52:05;;;;;;;14.07;6.27;;;;;;;11.00;100.00;64099.84;5035205;28;20182;-58
2023/05/04 05:54:31;;;;;;;8.17;5.73;;;;;;;11.03;100.00;64103.09;5053048;28;20213;-57
2023/05/04 05:56:57;;;;;;;9.37;5.87;;;;;;;11.07;100.00;64107.50;5053321;28;20217;-56
2023/05/04 05:59:22;;;;;;;9.33;6.00;;;;;;;11.13;100.00;64114.06;5053326;28;20213;-57
2023/05/04 06:01:48;;;;;;;10.57;5.40;;;;;;;11.13;100.00;64114.06;5053133;28;20190;-58
2023/05/04 06:04:13;;;;;;;8.13;5.50;;;;;;;11.07;100.00;64110.00;5052638;28;20715;-56
2023/05/04 06:06:39;;;;;;;7.97;5.13;;;;;;;11.15;100.00;64118.78;5053047;28;20308;-58
2023/05/04 06:09:05;;;;;;;7.17;5.73;;;;;;;11.15;100.00;64115.72;5069820;22;20224;-58
2023/05/04 06:11:30;;;;;;;10.37;5.87;;;;;;;11.14;100.00;64115.16;5072968;28;20188;-56
2023/05/04 06:13:56;;;;;;;8.57;6.27;;;;;;;11.23;100.00;64127.00;5062215;28;20213;-56
2023/05/04 06:16:22;;;;;;;8.87;6.20;;;;;;;11.23;100.00;64127.00;5052768;28;20189;-55
2023/05/04 06:18:48;;;;;;;6.57;5.30;;;;;;;11.26;100.00;64127.75;5034698;28;20221;-57
2023/05/04 06:21:13;;;;;;;5.67;4.70;;;;;;;11.28;100.00;64130.50;5034851;28;20224;-58
2023/05/04 06:23:39;;;;;;;6.43;4.27;;;;;;;11.29;100.00;64131.06;5052850;28;20240;-56
2023/05/04 06:26:07;;;;;;;6.30;4.50;;;;;;;11.46;100.00;64149.66;5052470;28;20209;-59
2023/05/04 06:28:34;;;;;;;5.93;4.17;;;;;;;11.51;100.00;64155.69;5034636;28;20694;-58
2023/05/04 06:31:00;;;;;;;8.43;4.23;;;;;;;11.38;100.00;64140.91;5052454;28;20182;-57
2023/05/04 06:33:26;;;;;;;3.70;3.40;;;;;;;11.39;100.00;64142.53;5052710;28;20206;-55
2023/05/04 06:35:52;;;;;;;6.13;4.47;;;;;;;11.44;100.00;64148.03;5052687;28;20209;-58
2023/05/04 06:38:18;;;;;;;5.67;4.20;;;;;;;11.44;100.00;64150.56;5052462;28;20276;-56
2023/05/04 06:40:43;;;;;;;6.93;4.07;;;;;;;11.29;100.00;64134.09;5052356;28;20323;-58
2023/05/04 06:43:09;;;;;;;5.83;4.00;;;;;;;11.31;100.00;64136.28;5052430;28;20247;-60
2023/05/04 06:45:35;;;;;;;5.03;4.37;;;;;;;11.36;100.00;64139.25;5052796;28;20182;-55
2023/05/04 06:48:01;;;;;;;5.87;4.30;;;;;;;11.45;100.00;64151.63;5052135;28;20608;-56
2023/05/04 06:50:26;;;;;;;9.03;4.17;;;;;;;11.34;100.00;64139.59;5052068;28;20656;-57
2023/05/04 06:53:01;;;;;;;5.43;4.07;;;;;;;11.39;100.00;64145.06;5052217;28;20193;-58
2023/05/04 06:55:27;;;;;;;7.20;4.30;;;;;;;11.49;100.00;64152.97;5052320;28;20189;-56
2023/05/04 06:57:52;;;;;;;6.40;4.70;;;;;;;11.49;100.00;64155.47;5060497;22;20633;-58
2023/05/04 07:00:18;;;;;;;6.53;4.57;;;;;;;11.45;100.00;64148.56;5071349;28;20221;-57
2023/05/04 07:02:45;;;;;;;4.67;3.83;;;;;;;11.56;100.00;64160.63;5070967;28;20241;-55
2023/05/04 07:05:11;;;;;;;9.13;5.10;;;;;;;11.52;100.00;64156.25;5052233;28;20197;-56
2023/05/04 07:07:37;;;;;;;6.17;4.07;;;;;;;11.61;100.00;64166.66;5051940;28;20239;-58
2023/05/04 07:10:02;;;;;;;5.50;4.80;;;;;;;11.52;100.00;64158.75;5051792;28;20219;-57
2023/05/04 07:12:28;;;;;;;6.00;4.53;;;;;;;11.65;100.00;64171.03;5051828;28;20190;-56
2023/05/04 07:14:53;;;;;;;10.90;5.10;;;;;;;11.65;100.00;64171.03;5051707;28;20224;-56
2023/05/04 07:17:20;;;;;;;7.40;4.53;;;;;;;11.48;100.00;64152.41;5051066;28;20190;-58
2023/05/04 07:19:48;;;;;;;8.70;5.13;;;;;;;11.51;100.00;64155.69;5051890;28;20210;-59
2023/05/04 07:22:14;;;;;;;6.33;4.63;;;;;;;11.58;100.00;64162.81;5051560;28;20194;-57
2023/05/04 07:24:39;;;;;;;7.73;5.13;;;;;;;11.42;100.00;64147.81;5051686;28;20567;-54
2023/05/04 07:27:05;;;;;;;7.33;4.70;;;;;;;11.33;100.00;64135.44;5033727;28;20205;-59
2023/05/04 07:29:31;;;;;;;7.30;5.17;;;;;;;11.34;100.00;64136.53;5052018;28;20311;-54
2023/05/04 07:31:56;;;;;;;7.70;4.77;;;;;;;11.33;100.00;64135.97;5051560;28;20667;-58
2023/05/04 07:34:21;;;;;;;7.47;5.50;;;;;;;11.15;100.00;64120.75;5033954;28;20210;-57
2023/05/04 07:36:47;;;;;;;8.20;5.80;;;;;;;11.11;100.00;64111.34;5051467;28;20199;-57
2023/05/04 07:39:15;;;;;;;7.57;5.30;;;;;;;11.11;100.00;64108.81;5051389;28;20239;-58
2023/05/04 07:41:40;;;;;;;7.03;5.40;;;;;;;11.02;100.00;64104.00;5033923;28;20201;-59
2023/05/04 07:44:07;;;;;;;9.87;6.30;;;;;;;11.02;100.00;64101.47;5051263;28;20249;-57
2023/05/04 07:46:33;;;;;;;13.83;7.07;;;;;;;11.13;100.00;64116.06;5051457;28;20257;-58
2023/05/04 07:48:58;;;;;;;12.33;6.87;;;;;;;11.20;100.00;64121.19;5051396;28;20287;-56
2023/05/04 07:51:23;;;;;;;14.30;6.00;;;;;;;11.17;100.00;64120.97;5051397;28;20242;-55
2023/05/04 07:53:49;;;;;;;10.93;7.33;;;;;;;11.18;100.00;64119.00;5051218;28;20694;-57
2023/05/04 07:56:14;;;;;;;11.33;6.37;;;;;;;11.15;100.00;64113.19;5051474;28;20212;-58
2023/05/04 07:58:40;;;;;;;9.23;6.00;;;;;;;11.12;100.00;64112.97;5051315;28;20754;-58
2023/05/04 08:01:06;;;;;;;8.23;5.10;;;;;;;11.22;100.00;64123.38;5051480;28;20186;-56
2023/05/04 08:03:32;;;;;;;6.60;4.93;;;;;;;11.29;100.00;64133.56;5051141;28;20205;-58
2023/05/04 08:05:57;;;;;;;7.47;5.00;;;;;;;11.23;100.00;64127.53;5051068;28;20193;-58
2023/05/04 08:08:24;;;;;;;8.60;5.73;;;;;;;11.28;100.00;64133.03;5050950;28;20213;-58
2023/05/04 08:10:49;;;;;;;7.30;5.50;;;;;;;11.33;100.00;64135.97;5051270;28;20217;-57
2023/05/04 08:13:15;;;;;;;5.63;4.93;;;;;;;11.42;100.00;64142.75;5050890;28;20808;-59
2023/05/04 08:15:40;;;;;;;8.03;5.87;;;;;;;11.35;100.00;64138.16;5051202;28;20193;-58
2023/05/04 08:18:06;;;;;;;7.10;6.00;;;;;;;11.20;100.00;64124.25;5033110;28;20566;-58
2023/05/04 08:20:31;;;;;;;7.67;5.70;;;;;;;11.28;100.00;64133.03;5050926;28;20194;-55
2023/05/04 08:22:57;;;;;;;7.30;5.83;;;;;;;11.31;100.00;64133.25;5050966;28;20268;-59
2023/05/04 08:25:22;;;;;;;8.43;5.37;;;;;;;11.37;100.00;64140.34;5050796;28;20212;-56
2023/05/04 08:27:48;;;;;;;8.73;6.80;;;;;;;11.48;100.00;64154.38;5050454;28;20295;-57
2023/05/04 08:30:15;;;;;;;9.27;6.20;;;;;;;11.61;100.00;64166.09;5050747;28;20663;-54
2023/05/04 08:32:41;;;;;;;9.10;6.43;;;;;;;11.72;100.00;64175.66;5050339;28;20201;-56
2023/05/04 08:35:06;;;;;;;8.40;5.87;;;;;;;11.87;100.00;64191.53;5050931;28;20181;-58
2023/05/04 08:37:32;;;;;;;10.50;6.10;;;;;;;11.82;100.00;64191.66;5050789;28;20193;-58
2023/05/04 08:39:58;;;;;;;10.83;6.13;;;;;;;11.92;100.00;64199.56;5050640;28;20710;-58
2023/05/04 08:42:28;;;;;;;10.40;5.90;;;;;;;11.95;100.00;64205.34;5032757;28;20196;-57
2023/05/04 08:44:56;;;;;;;8.50;6.60;;;;;;;11.91;100.00;64196.47;5050567;28;20214;-56
2023/05/04 08:47:22;;;;;;;8.73;5.37;;;;;;;11.93;100.00;64203.16;5050533;28;20209;-56
2023/05/04 08:49:48;;;;;;;7.13;5.80;;;;;;;12.17;100.00;64227.50;5050625;28;20590;-54
2023/05/04 08:52:14;;;;;;;9.30;5.83;;;;;;;12.46;100.00;64256.22;5050462;28;20667;-58
2023/05/04 08:54:42;;;;;;;9.13;5.97;;;;;;;12.43;100.00;64255.47;5050433;28;20226;-58
2023/05/04 08:57:08;;;;;;;9.17;7.00;;;;;;;12.68;100.00;64282.34;5050548;28;20575;-57
2023/05/04 08:59:35;;;;;;;8.23;6.47;;;;;;;12.82;100.00;64300.78;5050905;28;20206;-55
2023/05/04 09:02:01;;;;;;;6.93;5.67;;;;;;;13.05;100.00;64323.47;5032367;28;20213;-55
2023/05/04 09:04:29;;;;;;;7.37;5.57;;;;;;;13.20;100.00;64337.44;5050654;28;20361;-56
2023/05/04 09:06:56;;;;;;;9.77;6.60;;;;;;;13.23;100.00;64345.78;5050391;28;20287;-58
2023/05/04 09:09:26;;;;;;;7.77;5.97;;;;;;;13.22;100.00;64339.06;5050372;28;20213;-58
2023/05/04 09:11:52;;;;;;;11.83;7.63;;;;;;;13.19;100.00;64335.78;5050316;28;20185;-56
2023/05/04 09:14:17;;;;;;;9.80;6.03;;;;;;;13.10;100.00;64328.97;5049919;28;20292;-56
2023/05/04 09:16:43;;;;;;;8.63;6.13;;;;;;;13.26;100.00;64349.06;5050099;28;20185;-58
2023/05/04 09:19:19;;;;;;;7.30;5.83;;;;;;;13.20;100.00;64339.41;5032105;28;20595;-55
2023/05/04 09:21:45;;;;;;;8.73;7.23;;;;;;;13.12;100.00;64330.63;5050051;28;20192;-55
2023/05/04 09:24:11;;;;;;;7.03;5.87;;;;;;;13.03;100.00;64321.28;5050200;28;20213;-55
2023/05/04 09:26:38;;;;;;;8.00;6.40;;;;;;;13.11;100.00;64332.06;5049916;28;20221;-56
2023/05/04 09:29:13;;;;;;;7.73;6.57;;;;;;;13.01;100.00;64318.53;5050071;28;20209;-57
2023/05/04 09:31:47;;;;;;;12.07;7.40;;;;;;;13.02;100.00;64319.63;5049965;28;20212;-57
2023/05/04 09:34:13;;;;;;;9.98;8.32;;;;;;;13.19;100.00;64338.84;5032092;28;20221;-58
2023/05/04 09:36:40;;;;;;;12.63;8.90;;;;;;;13.30;100.00;64350.38;5049831;28;20663;-58
2023/05/04 09:39:13;;;;;;;11.13;8.37;;;;;;;13.12;100.00;64333.72;5050653;28;20591;-55
2023/05/04 09:41:40;;;;;;;14.83;8.30;;;;;;;13.18;100.00;64340.28;5053151;28;20251;-56
2023/05/04 09:44:24;;;;;;;12.43;8.90;;;;;;;12.91;100.00;64310.63;5053421;28;20217;-58
2023/05/04 09:46:57;;;;;;;13.30;7.63;;;;;;;13.10;100.00;64330.97;5052987;28;20290;-56
2023/05/04 09:49:32;;;;;;;11.77;8.10;;;;;;;13.15;100.00;64334.47;5053307;28;20240;-58
2023/05/04 09:52:01;;;;;;;14.03;9.33;;;;;;;13.26;100.00;64343.47;5053327;28;20197;-56
2023/05/04 09:54:28;;;;;;;13.20;9.03;;;;;;;13.30;100.00;64350.94;5053103;28;20659;-57
2023/05/04 09:57:04;;;;;;;13.60;9.23;;;;;;;13.48;100.00;64370.13;5053211;28;20201;-59
2023/05/04 09:59:33;;;;;;;11.47;8.67;;;;;;;13.31;100.00;64354.56;5053114;28;20257;-59
2023/05/04 10:01:58;;;;;;;11.07;7.63;;;;;;;13.27;100.00;64347.63;5035029;28;20198;-58
2023/05/04 10:04:24;;;;;;;14.37;8.83;;;;;;;13.04;100.00;64321.84;5052841;28;20347;-57
2023/05/04 10:06:58;;;;;;;11.43;8.43;;;;;;;13.10;100.00;64328.97;5034947;28;20209;-58
2023/05/04 10:09:34;;;;;;;12.83;9.67;;;;;;;13.35;100.00;64355.88;5035044;28;20228;-56
2023/05/04 10:12:01;;;;;;;11.33;8.60;;;;;;;13.13;100.00;64329.72;5034941;28;20228;-57
2023/05/04 10:14:33;;;;;;;12.53;9.20;;;;;;;13.79;100.00;64403.63;5052489;28;20280;-59
2023/05/04 10:20:22;;;;;;;11.35;7.85;;;;;;;14.53;94.87;64486.91;5052932;28;20236;-61
2023/05/04 10:23:08;;;;;;;13.07;8.87;;;;;;;14.55;95.61;64487.13;5052690;28;20268;-56
2023/05/04 10:25:54;;;;;;;13.60;10.13;;;;;;;14.53;96.12;64487.47;5052883;28;20201;-57
2023/05/04 10:28:28;;;;;;;14.73;9.50;;;;;;;14.57;95.33;64489.31;5052476;28;20221;-59
2023/05/04 10:30:57;;;;;;;14.00;10.02;;;;;;;14.37;99.11;64464.81;5052422;28;20189;-57
2023/05/04 10:33:24;;;;;;;12.83;8.63;;;;;;;13.96;98.33;64422.84;5052589;28;20202;-58
2023/05/04 10:35:54;;;;;;;11.50;8.68;;;;;;;13.99;98.62;64426.13;5052498;28;20276;-56
2023/05/04 10:38:31;;;;;;;12.25;9.35;;;;;;;14.18;96.88;64443.94;5052283;28;20244;-59
2023/05/04 10:40:56;;;;;;;12.32;8.80;;;;;;;14.20;94.64;64448.66;5052321;28;20216;-55
2023/05/04 10:43:22;;;;;;;13.20;8.47;;;;;;;14.14;94.59;64439.50;5052345;28;20240;-60
2023/05/04 10:45:48;;;;;;;12.93;9.52;;;;;;;14.04;97.13;64431.06;5052516;28;20619;-58
2023/05/04 10:48:14;;;;;;;15.73;10.20;;;;;;;14.22;97.70;64448.31;5052230;28;20217;-59
2023/05/04 10:50:49;;;;;;;16.02;10.65;;;;;;;14.19;97.94;64447.56;5052286;28;20200;-58
2023/05/04 10:53:16;;;;;;;13.63;9.60;;;;;;;14.18;96.58;64449.53;5052301;28;20295;-56
2023/05/04 10:55:43;;;;;;;14.73;9.80;;;;;;;14.03;97.50;64432.50;5052261;28;20685;-55
2023/05/04 10:58:13;;;;;;;16.70;9.95;;;;;;;14.03;97.97;64429.97;5052194;28;20218;-59
2023/05/04 11:00:42;;;;;;;14.35;10.38;;;;;;;14.20;95.69;64448.66;5052081;28;20190;-56
2023/05/04 11:03:08;;;;;;;14.93;11.15;;;;;;;14.15;96.17;64440.63;5052136;28;20233;-58
2023/05/04 11:05:43;;;;;;;14.93;10.00;;;;;;;14.10;92.95;64440.19;5052318;28;20210;-56
2023/05/04 11:08:15;;;;;;;15.30;10.13;;;;;;;13.95;93.96;64421.19;5051955;28;20563;-54
2023/05/04 11:10:40;;;;;;;13.70;9.43;;;;;;;13.89;95.23;64415.16;5052146;28;20229;-59
2023/05/04 11:13:10;;;;;;;15.73;11.35;;;;;;;13.58;96.09;64381.13;5051821;28;20248;-59
2023/05/04 11:15:50;;;;;;;16.07;9.53;;;;;;;13.59;95.99;64379.13;5052026;28;20570;-60
2023/05/04 11:18:29;;;;;;;14.90;9.40;;;;;;;13.36;98.38;64354.97;5051758;28;20595;-57
2023/05/04 11:20:55;;;;;;;16.67;11.63;;;;;;;13.49;99.01;64371.25;5051704;28;20623;-55